createdAt,value
2023-01-05T00:01:37.100Z,98174.00
2023-01-05T00:04:05.645Z,98175.00
2023-01-05T00:06:34.019Z,98168.00
2023-01-05T00:09:02.095Z,98161.00
2023-01-05T00:11:47.605Z,98156.00
2023-01-05T00:14:38.508Z,98144.00
2023-01-05T00:17:25.320Z,98153.00
2023-01-05T00:20:10.766Z,98147.00
2023-01-05T00:22:44.937Z,98164.00
2023-01-05T00:25:14.568Z,98156.00
2023-01-05T00:27:43.554Z,98145.00
2023-01-05T00:30:14.933Z,98144.00
2023-01-05T00:32:43.829Z,98140.00
2023-01-05T00:35:12.650Z,98135.00
2023-01-05T00:37:40.822Z,98142.00
2023-01-05T00:40:10.786Z,98133.00
2023-01-05T00:42:38.507Z,98128.00
2023-01-05T00:45:12.709Z,98141.00
2023-01-05T00:47:40.517Z,98140.00
2023-01-05T00:50:09.911Z,98133.00
2023-01-05T00:52:38.007Z,98129.00
2023-01-05T00:55:06.351Z,98131.00
2023-01-05T00:57:34.003Z,98124.00
2023-01-05T01:00:02.270Z,98120.00
2023-01-05T01:02:31.536Z,98113.00
2023-01-05T01:04:59.251Z,98122.00
2023-01-05T01:07:26.879Z,98112.00
2023-01-05T01:09:54.559Z,98117.00
2023-01-05T01:12:22.187Z,98120.00
2023-01-05T01:14:50.166Z,98117.00
2023-01-05T01:17:18.142Z,98122.00
2023-01-05T01:19:47.146Z,98117.00
2023-01-05T01:22:15.243Z,98104.00
2023-01-05T01:24:42.983Z,98105.00
2023-01-05T01:27:10.642Z,98115.00
2023-01-05T01:29:38.300Z,98122.00
2023-01-05T01:32:06.210Z,98111.00
2023-01-05T01:34:33.825Z,98092.00
2023-01-05T01:39:29.323Z,98092.00
2023-01-05T01:41:56.982Z,98069.00
2023-01-05T01:44:50.672Z,98068.00
2023-01-05T01:47:23.815Z,98062.00
2023-01-05T01:49:52.443Z,98062.00
2023-01-05T01:52:24.451Z,98061.00
2023-01-05T01:54:53.485Z,98068.00
2023-01-05T01:57:22.450Z,98070.00
2023-01-05T01:59:50.788Z,98069.00
2023-01-05T02:02:18.944Z,98065.00
2023-01-05T02:04:47.031Z,98072.00
2023-01-05T02:07:17.137Z,98063.00
2023-01-05T02:09:46.972Z,98063.00
2023-01-05T02:12:30.472Z,98061.00
2023-01-05T02:15:08.587Z,98050.00
2023-01-05T02:17:52.435Z,98044.00
2023-01-05T02:20:37.296Z,98048.00
2023-01-05T02:24:08.039Z,98037.00
2023-01-05T02:27:04.168Z,98045.00
2023-01-05T02:29:52.226Z,98041.00
2023-01-05T02:32:24.030Z,98041.00
2023-01-05T02:35:04.140Z,98050.00
2023-01-05T02:37:35.953Z,98050.00
2023-01-05T02:40:09.673Z,98070.00
2023-01-05T02:42:38.838Z,98063.00
2023-01-05T02:45:08.357Z,98044.00
2023-01-05T02:47:45.255Z,98047.00
2023-01-05T02:50:18.746Z,98046.00
2023-01-05T02:52:54.608Z,98042.00
2023-01-05T02:55:30.461Z,98036.00
2023-01-05T02:58:01.693Z,98036.00
2023-01-05T03:00:34.475Z,98023.00
2023-01-05T03:03:09.262Z,98018.00
2023-01-05T03:05:41.847Z,98023.00
2023-01-05T03:08:25.105Z,98028.00
2023-01-05T03:11:21.269Z,98032.00
2023-01-05T03:13:55.129Z,98037.00
2023-01-05T03:16:27.294Z,98032.00
2023-01-05T03:19:15.834Z,98035.00
2023-01-05T03:22:01.568Z,98024.00
2023-01-05T03:24:47.099Z,98034.00
2023-01-05T03:27:33.248Z,98022.00
2023-01-05T03:30:18.948Z,98026.00
2023-01-05T03:33:09.184Z,98016.00
2023-01-05T03:35:42.411Z,98023.00
2023-01-05T03:38:18.272Z,98004.00
2023-01-05T03:40:47.487Z,98004.00
2023-01-05T03:43:15.388Z,98002.00
2023-01-05T03:45:46.531Z,98004.00
2023-01-05T03:48:14.199Z,97996.00
2023-01-05T03:50:43.160Z,97986.00
2023-01-05T03:53:10.821Z,97988.00
2023-01-05T03:55:38.451Z,97989.00
2023-01-05T03:58:06.116Z,97985.00
2023-01-05T04:00:33.961Z,97984.00
2023-01-05T04:03:01.964Z,97979.00
2023-01-05T04:05:29.628Z,97981.00
2023-01-05T04:07:58.637Z,97986.00
2023-01-05T04:10:26.262Z,97985.00
2023-01-05T04:12:53.943Z,97980.00
2023-01-05T04:15:21.607Z,97986.00
2023-01-05T04:17:49.328Z,97982.00
2023-01-05T04:20:17.107Z,97986.00
2023-01-05T04:22:44.728Z,97986.00
2023-01-05T04:25:13.728Z,97987.00
2023-01-05T04:27:41.358Z,97982.00
2023-01-05T04:30:10.627Z,97985.00
2023-01-05T04:32:38.265Z,97997.00
2023-01-05T04:35:10.906Z,97987.00
2023-01-05T04:37:39.115Z,97982.00
2023-01-05T04:40:07.862Z,97989.00
2023-01-05T04:42:36.918Z,97982.00
2023-01-05T04:45:05.083Z,97994.00
2023-01-05T04:47:32.736Z,97996.00
2023-01-05T04:50:00.400Z,97990.00
2023-01-05T04:52:28.053Z,97989.00
2023-01-05T04:54:55.889Z,98000.00
2023-01-05T04:57:23.521Z,98005.00
2023-01-05T04:59:52.550Z,98005.00
2023-01-05T05:02:20.327Z,98007.00
2023-01-05T05:04:48.184Z,98011.00
2023-01-05T05:07:15.822Z,98012.00
2023-01-05T05:09:43.488Z,98008.00
2023-01-05T05:12:11.121Z,98013.00
2023-01-05T05:14:38.767Z,98032.00
2023-01-05T05:17:08.155Z,98023.00
2023-01-05T05:19:35.814Z,98017.00
2023-01-05T05:22:03.905Z,98048.00
2023-01-05T05:24:31.756Z,98054.00
2023-01-05T05:26:59.385Z,98040.00
2023-01-05T05:29:27.125Z,98052.00
2023-01-05T05:31:55.027Z,98058.00
2023-01-05T05:34:24.136Z,98068.00
2023-01-05T05:36:51.790Z,98080.00
2023-01-05T05:39:19.429Z,98080.00
2023-01-05T05:41:47.095Z,98093.00
2023-01-05T05:44:14.922Z,98103.00
2023-01-05T05:46:42.662Z,98110.00
2023-01-05T05:49:10.338Z,98111.00
2023-01-05T05:51:39.332Z,98111.00
2023-01-05T05:54:07.209Z,98097.00
2023-01-05T05:56:34.855Z,98107.00
2023-01-05T05:59:02.878Z,98122.00
2023-01-05T06:01:30.842Z,98125.00
2023-01-05T06:03:58.641Z,98135.00
2023-01-05T06:06:26.260Z,98135.00
2023-01-05T06:08:55.276Z,98129.00
2023-01-05T06:11:22.991Z,98129.00
2023-01-05T06:13:50.676Z,98153.00
2023-01-05T06:16:18.374Z,98177.00
2023-01-05T06:18:46.012Z,98186.00
2023-01-05T06:21:13.644Z,98198.00
2023-01-05T06:23:41.274Z,98186.00
2023-01-05T06:26:10.275Z,98191.00
2023-01-05T06:28:37.963Z,98191.00
2023-01-05T06:31:05.931Z,98186.00
2023-01-05T06:33:33.655Z,98178.00
2023-01-05T06:36:01.292Z,98169.00
2023-01-05T06:38:29.407Z,98162.00
2023-01-05T06:40:58.118Z,98176.00
2023-01-05T06:43:27.083Z,98165.00
2023-01-05T06:45:54.854Z,98166.00
2023-01-05T06:48:22.542Z,98162.00
2023-01-05T06:50:50.222Z,98167.00
2023-01-05T06:53:17.831Z,98167.00
2023-01-05T06:55:46.035Z,98156.00
2023-01-05T06:58:13.708Z,98168.00
2023-01-05T07:00:42.814Z,98163.00
2023-01-05T07:03:14.228Z,98160.00
2023-01-05T07:05:42.084Z,98166.00
2023-01-05T07:08:09.775Z,98173.00
2023-01-05T07:10:37.443Z,98173.00
2023-01-05T07:13:05.072Z,98185.00
2023-01-05T07:15:32.698Z,98187.00
2023-01-05T07:18:01.671Z,98196.00
2023-01-05T07:20:29.293Z,98201.00
2023-01-05T07:22:57.105Z,98202.00
2023-01-05T07:25:24.888Z,98198.00
2023-01-05T07:27:53.039Z,98209.00
2023-01-05T07:30:20.880Z,98215.00
2023-01-05T07:32:48.884Z,98221.00
2023-01-05T07:35:18.063Z,98230.00
2023-01-05T07:37:45.710Z,98232.00
2023-01-05T07:40:13.789Z,98233.00
2023-01-05T07:42:41.417Z,98240.00
2023-01-05T07:45:10.308Z,98244.00
2023-01-05T07:47:40.227Z,98247.00
2023-01-05T07:50:08.707Z,98258.00
2023-01-05T07:52:39.130Z,98247.00
2023-01-05T07:55:08.243Z,98246.00
2023-01-05T07:57:35.900Z,98251.00
2023-01-05T08:00:04.492Z,98242.00
2023-01-05T08:02:36.069Z,98256.00
2023-01-05T08:05:04.091Z,98270.00
2023-01-05T08:07:31.877Z,98269.00
2023-01-05T08:10:18.709Z,98286.00
2023-01-05T08:13:03.852Z,98297.00
2023-01-05T08:15:31.521Z,98298.00
2023-01-05T08:17:59.153Z,98297.00
2023-01-05T08:20:26.776Z,98299.00
2023-01-05T08:22:54.820Z,98295.00
2023-01-05T08:25:23.897Z,98311.00
2023-01-05T08:27:51.545Z,98302.00
2023-01-05T08:30:19.342Z,98309.00
2023-01-05T08:32:46.979Z,98309.00
2023-01-05T08:35:14.636Z,98313.00
2023-01-05T08:37:45.296Z,98319.00
2023-01-05T08:40:13.538Z,98320.00
2023-01-05T08:42:42.508Z,98328.00
2023-01-05T08:45:11.208Z,98325.00
2023-01-05T08:47:38.882Z,98327.00
2023-01-05T08:50:09.410Z,98335.00
2023-01-05T08:52:37.448Z,98330.00
2023-01-05T08:55:07.904Z,98337.00
2023-01-05T08:57:36.009Z,98338.00
2023-01-05T09:00:07.789Z,98344.00
2023-01-05T09:02:36.293Z,98345.00
2023-01-05T09:05:04.175Z,98338.00
2023-01-05T09:07:31.814Z,98349.00
2023-01-05T09:09:59.459Z,98343.00
2023-01-05T09:12:32.741Z,98334.00
2023-01-05T09:15:00.980Z,98341.00
2023-01-05T09:17:30.343Z,98349.00
2023-01-05T09:19:58.008Z,98355.00
2023-01-05T09:22:26.235Z,98359.00
2023-01-05T09:24:53.901Z,98366.00
2023-01-05T09:27:21.781Z,98357.00
2023-01-05T09:29:49.743Z,98355.00
2023-01-05T09:32:17.702Z,98367.00
2023-01-05T09:34:46.655Z,98370.00
2023-01-05T09:37:16.895Z,98370.00
2023-01-05T09:39:44.659Z,98372.00
2023-01-05T09:42:15.412Z,98376.00
2023-01-05T09:44:46.078Z,98372.00
2023-01-05T09:47:18.342Z,98373.00
2023-01-05T09:49:49.761Z,98364.00
2023-01-05T09:52:23.086Z,98367.00
2023-01-05T09:54:51.017Z,98364.00
2023-01-05T09:57:21.331Z,98359.00
2023-01-05T09:59:51.673Z,98362.00
2023-01-05T10:02:25.428Z,98356.00
2023-01-05T10:04:56.532Z,98357.00
2023-01-05T10:07:35.558Z,98363.00
2023-01-05T10:10:09.897Z,98366.00
2023-01-05T10:13:02.953Z,98371.00
2023-01-05T10:15:37.401Z,98368.00
2023-01-05T10:18:11.718Z,98373.00
2023-01-05T10:20:49.424Z,98357.00
2023-01-05T10:23:31.611Z,98376.00
2023-01-05T10:26:06.171Z,98372.00
2023-01-05T10:28:41.007Z,98382.00
2023-01-05T10:31:18.855Z,98373.00
2023-01-05T10:33:56.753Z,98380.00
2023-01-05T10:37:09.909Z,98384.00
2023-01-05T10:40:03.959Z,98369.00
2023-01-05T10:42:45.416Z,98380.00
2023-01-05T10:45:15.336Z,98391.00
2023-01-05T10:47:45.307Z,98383.00
2023-01-05T10:50:34.657Z,98386.00
2023-01-05T10:53:10.480Z,98388.00
2023-01-05T10:55:46.259Z,98379.00
2023-01-05T10:58:26.620Z,98384.00
2023-01-05T11:00:57.763Z,98381.00
2023-01-05T11:06:28.873Z,98379.00
2023-01-05T11:09:07.237Z,98382.00
2023-01-05T11:11:35.698Z,98394.00
2023-01-05T11:14:03.398Z,98389.00
2023-01-05T11:16:33.267Z,98393.00
2023-01-05T11:19:03.435Z,98396.00
2023-01-05T11:21:44.400Z,98398.00
2023-01-05T11:27:24.486Z,98394.00
2023-01-05T11:30:21.255Z,98396.00
2023-01-05T11:32:49.425Z,98390.00
2023-01-05T11:35:20.781Z,98396.00
2023-01-05T11:37:48.722Z,98405.00
2023-01-05T11:40:18.085Z,98405.00
2023-01-05T11:42:47.796Z,98400.00
2023-01-05T11:45:21.926Z,98401.00
2023-01-05T11:47:51.495Z,98396.00
2023-01-05T11:50:24.815Z,98392.00
2023-01-05T11:52:54.885Z,98400.00
2023-01-05T11:55:34.792Z,98385.00
2023-01-05T11:58:26.456Z,98403.00
2023-01-05T12:01:19.708Z,98397.00
2023-01-05T12:04:01.422Z,98386.00
2023-01-05T12:06:54.720Z,98385.00
2023-01-05T12:09:34.331Z,98384.00
2023-01-05T12:12:20.364Z,98385.00
2023-01-05T12:15:07.685Z,98374.00
2023-01-05T12:17:47.689Z,98387.00
2023-01-05T12:20:36.734Z,98381.00
2023-01-05T12:23:18.948Z,98385.00
2023-01-05T12:25:58.917Z,98389.00
2023-01-05T12:29:21.274Z,98387.00
2023-01-05T12:33:52.446Z,98403.00
2023-01-05T12:35:24.949Z,98405.00
2023-01-05T12:38:10.642Z,98397.00
2023-01-05T12:40:55.830Z,98408.00
2023-01-05T12:43:38.072Z,98398.00
2023-01-05T12:46:19.642Z,98402.00
2023-01-05T12:48:53.990Z,98401.00
2023-01-05T12:51:28.267Z,98409.00
2023-01-05T12:54:00.132Z,98409.00
2023-01-05T12:56:33.028Z,98415.00
2023-01-05T12:59:11.641Z,98412.00
2023-01-05T13:01:46.533Z,98410.00
2023-01-05T13:04:38.880Z,98404.00
2023-01-05T13:07:17.314Z,98406.00
2023-01-05T13:09:48.074Z,98408.00
2023-01-05T13:12:16.537Z,98409.00
2023-01-05T13:14:55.341Z,98411.00
2023-01-05T13:17:28.778Z,98414.00
2023-01-05T13:20:05.936Z,98412.00
2023-01-05T13:22:37.133Z,98412.00
2023-01-05T13:25:07.994Z,98415.00
2023-01-05T13:27:35.883Z,98411.00
2023-01-05T13:30:05.845Z,98406.00
2023-01-05T13:32:57.428Z,98408.00
2023-01-05T13:35:39.325Z,98404.00
2023-01-05T13:38:47.961Z,98403.00
2023-01-05T13:41:26.644Z,98396.00
2023-01-05T13:44:25.051Z,98400.00
2023-01-05T13:47:06.240Z,98406.00
2023-01-05T13:50:03.393Z,98410.00
2023-01-05T13:52:48.184Z,98414.00
2023-01-05T13:55:25.824Z,98418.00
2023-01-05T13:57:56.627Z,98425.00
2023-01-05T14:00:29.278Z,98425.00
2023-01-05T14:03:06.947Z,98426.00
2023-01-05T14:05:42.117Z,98429.00
2023-01-05T14:08:23.464Z,98429.00
2023-01-05T14:11:12.041Z,98424.00
2023-01-05T14:13:46.961Z,98436.00
2023-01-05T14:16:56.452Z,98427.00
2023-01-05T14:19:53.102Z,98429.00
2023-01-05T14:22:43.030Z,98441.00
2023-01-05T14:25:52.753Z,98437.00
2023-01-05T14:28:24.839Z,98446.00
2023-01-05T14:31:15.689Z,98454.00
2023-01-05T14:33:50.093Z,98458.00
2023-01-05T14:36:26.396Z,98459.00
2023-01-05T14:38:55.712Z,98458.00
2023-01-05T14:41:28.617Z,98462.00
2023-01-05T14:44:02.427Z,98461.00
2023-01-05T14:46:46.332Z,98464.00
2023-01-05T14:49:22.462Z,98466.00
2023-01-05T14:51:55.334Z,98473.00
2023-01-05T14:54:37.575Z,98477.00
2023-01-05T14:57:37.072Z,98482.00
2023-01-05T15:00:13.396Z,98480.00
2023-01-05T15:02:54.658Z,98491.00
2023-01-05T15:05:24.293Z,98492.00
2023-01-05T15:08:05.110Z,98485.00
2023-01-05T15:10:49.716Z,98489.00
2023-01-05T15:14:20.965Z,98485.00
2023-01-05T15:17:17.516Z,98490.00
2023-01-05T15:20:08.171Z,98494.00
2023-01-05T15:22:56.812Z,98504.00
2023-01-05T15:25:53.003Z,98494.00
2023-01-05T15:29:09.887Z,98505.00
2023-01-05T15:31:41.554Z,98499.00
2023-01-05T15:34:32.412Z,98504.00
2023-01-05T15:37:10.189Z,98505.00
2023-01-05T15:39:47.485Z,98500.00
2023-01-05T15:42:18.896Z,98512.00
2023-01-05T15:44:55.717Z,98509.00
2023-01-05T15:47:27.120Z,98506.00
2023-01-05T15:49:59.767Z,98512.00
2023-01-05T15:52:35.677Z,98509.00
2023-01-05T15:55:16.316Z,98513.00
2023-01-05T15:57:52.365Z,98523.00
2023-01-05T16:00:25.116Z,98516.00
2023-01-05T16:02:53.353Z,98527.00
2023-01-05T16:05:23.943Z,98527.00
2023-01-05T16:07:58.122Z,98526.00
2023-01-05T16:10:30.900Z,98531.00
2023-01-05T16:13:08.983Z,98539.00
2023-01-05T16:15:42.221Z,98540.00
2023-01-05T16:18:19.375Z,98536.00
2023-01-05T16:20:50.099Z,98543.00
2023-01-05T16:23:24.733Z,98553.00
2023-01-05T16:25:55.555Z,98548.00
2023-01-05T16:28:24.676Z,98547.00
2023-01-05T16:30:55.037Z,98549.00
2023-01-05T16:33:33.500Z,98558.00
2023-01-05T16:36:14.687Z,98562.00
2023-01-05T16:38:42.724Z,98558.00
2023-01-05T16:41:17.136Z,98563.00
2023-01-05T16:43:51.373Z,98575.00
2023-01-05T16:46:44.874Z,98574.00
2023-01-05T16:49:43.474Z,98577.00
2023-01-05T16:52:24.344Z,98572.00
2023-01-05T16:55:23.692Z,98573.00
2023-01-05T16:57:55.528Z,98573.00
2023-01-05T17:00:39.728Z,98578.00
2023-01-05T17:03:31.435Z,98579.00
2023-01-05T17:06:01.060Z,98578.00
2023-01-05T17:08:31.935Z,98578.00
2023-01-05T17:11:02.898Z,98578.00
2023-01-05T17:13:34.078Z,98576.00
2023-01-05T17:16:04.331Z,98575.00
2023-01-05T17:18:33.685Z,98572.00
2023-01-05T17:21:02.093Z,98579.00
2023-01-05T17:23:32.614Z,98577.00
2023-01-05T17:26:06.030Z,98576.00
2023-01-05T17:28:34.254Z,98575.00
2023-01-05T17:31:02.465Z,98572.00
2023-01-05T17:33:30.575Z,98575.00
2023-01-05T17:36:00.136Z,98585.00
2023-01-05T17:38:27.848Z,98578.00
2023-01-05T17:40:56.384Z,98588.00
2023-01-05T17:43:24.230Z,98595.00
2023-01-05T17:45:53.044Z,98591.00
2023-01-05T17:48:20.889Z,98590.00
2023-01-05T17:50:49.034Z,98596.00
2023-01-05T17:53:19.505Z,98595.00
2023-01-05T17:55:47.801Z,98600.00
2023-01-05T17:58:16.368Z,98600.00
2023-01-05T18:03:17.198Z,98603.00
2023-01-05T18:05:45.580Z,98602.00
2023-01-05T18:08:14.618Z,98596.00
2023-01-05T18:10:43.927Z,98597.00
2023-01-05T18:13:14.702Z,98594.00
2023-01-05T18:15:45.955Z,98597.00
2023-01-05T18:18:14.832Z,98596.00
2023-01-05T18:20:44.206Z,98590.00
2023-01-05T18:23:13.208Z,98599.00
2023-01-05T18:25:41.323Z,98594.00
2023-01-05T18:28:11.071Z,98600.00
2023-01-05T18:30:41.732Z,98612.00
2023-01-05T18:35:43.813Z,98596.00
2023-01-05T18:38:12.509Z,98603.00
2023-01-05T18:40:40.353Z,98601.00
2023-01-05T18:43:08.163Z,98612.00
2023-01-05T18:45:39.775Z,98607.00
2023-01-05T18:48:08.464Z,98602.00
2023-01-05T18:50:40.937Z,98611.00
2023-01-05T18:53:08.911Z,98608.00
2023-01-05T18:55:41.279Z,98609.00
2023-01-05T18:58:09.641Z,98614.00
2023-01-05T19:00:40.284Z,98614.00
2023-01-05T19:03:08.150Z,98616.00
2023-01-05T19:05:41.107Z,98613.00
2023-01-05T19:08:09.534Z,98619.00
2023-01-05T19:10:37.617Z,98616.00
2023-01-05T19:13:05.619Z,98618.00
2023-01-05T19:15:33.868Z,98620.00
2023-01-05T19:18:02.962Z,98625.00
2023-01-05T19:20:31.705Z,98622.00
2023-01-05T19:22:59.719Z,98615.00
2023-01-05T19:25:27.728Z,98613.00
2023-01-05T19:27:55.725Z,98613.00
2023-01-05T19:30:24.919Z,98619.00
2023-01-05T19:32:52.959Z,98613.00
2023-01-05T19:35:22.762Z,98616.00
2023-01-05T19:37:50.781Z,98616.00
2023-01-05T19:40:18.787Z,98607.00
2023-01-05T19:42:46.761Z,98610.00
2023-01-05T19:45:14.706Z,98620.00
2023-01-05T19:47:43.180Z,98611.00
2023-01-05T19:50:12.706Z,98605.00
2023-01-05T19:52:41.712Z,98600.00
2023-01-05T19:55:12.039Z,98610.00
2023-01-05T19:57:39.741Z,98613.00
2023-01-05T20:00:09.100Z,98610.00
2023-01-05T20:02:36.845Z,98623.00
2023-01-05T20:05:06.147Z,98617.00
2023-01-05T20:07:33.780Z,98616.00
2023-01-05T20:10:02.759Z,98613.00
2023-01-05T20:12:30.392Z,98621.00
2023-01-05T20:14:58.009Z,98623.00
2023-01-05T20:17:25.676Z,98619.00
2023-01-05T20:19:53.275Z,98624.00
2023-01-05T20:22:21.440Z,98628.00
2023-01-05T20:24:49.054Z,98624.00
2023-01-05T20:27:18.856Z,98626.00
2023-01-05T20:29:46.497Z,98624.00
2023-01-05T20:32:17.292Z,98620.00
2023-01-05T20:34:46.257Z,98628.00
2023-01-05T20:37:13.929Z,98627.00
2023-01-05T20:39:42.622Z,98631.00
2023-01-05T20:42:11.055Z,98632.00
2023-01-05T20:44:45.399Z,98620.00
2023-01-05T20:47:13.611Z,98629.00
2023-01-05T20:49:42.334Z,98626.00
2023-01-05T20:52:11.051Z,98635.00
2023-01-05T20:54:39.731Z,98636.00
2023-01-05T20:57:08.116Z,98632.00
2023-01-05T20:59:40.616Z,98640.00
2023-01-05T21:02:22.353Z,98641.00
2023-01-05T21:04:51.642Z,98644.00
2023-01-05T21:07:20.236Z,98646.00
2023-01-05T21:09:48.105Z,98644.00
2023-01-05T21:12:15.797Z,98638.00
2023-01-05T21:14:43.459Z,98644.00
2023-01-05T21:17:12.635Z,98643.00
2023-01-05T21:19:40.258Z,98647.00
2023-01-05T21:22:07.892Z,98634.00
2023-01-05T21:24:35.510Z,98629.00
2023-01-05T21:27:03.228Z,98629.00
2023-01-05T21:29:30.977Z,98634.00
2023-01-05T21:31:58.685Z,98634.00
2023-01-05T21:34:28.134Z,98638.00
2023-01-05T21:36:55.808Z,98643.00
2023-01-05T21:39:25.795Z,98632.00
2023-01-05T21:42:12.447Z,98627.00
2023-01-05T21:44:40.411Z,98635.00
2023-01-05T21:47:08.804Z,98630.00
2023-01-05T21:49:37.862Z,98625.00
2023-01-05T21:52:24.158Z,98627.00
2023-01-05T21:55:09.270Z,98629.00
2023-01-05T21:57:37.115Z,98630.00
2023-01-05T22:00:06.118Z,98625.00
2023-01-05T22:02:33.804Z,98617.00
2023-01-05T22:05:02.895Z,98610.00
2023-01-05T22:07:30.513Z,98621.00
2023-01-05T22:09:58.150Z,98617.00
2023-01-05T22:12:25.779Z,98613.00
2023-01-05T22:14:53.443Z,98613.00
2023-01-05T22:17:21.211Z,98602.00
2023-01-05T22:19:49.058Z,98610.00
2023-01-05T22:22:18.057Z,98599.00
2023-01-05T22:24:45.785Z,98605.00
2023-01-05T22:27:13.584Z,98611.00
2023-01-05T22:29:41.674Z,98616.00
2023-01-05T22:32:09.453Z,98616.00
2023-01-05T22:34:43.558Z,98619.00
2023-01-05T22:37:11.261Z,98615.00
2023-01-05T22:39:40.428Z,98609.00
2023-01-05T22:42:08.115Z,98608.00
2023-01-05T22:44:35.840Z,98607.00
2023-01-05T22:47:03.600Z,98611.00
2023-01-05T22:49:31.615Z,98617.00
2023-01-05T22:51:59.359Z,98610.00
2023-01-05T22:54:27.069Z,98607.00
2023-01-05T22:56:56.102Z,98615.00
2023-01-05T22:59:24.012Z,98611.00
2023-01-05T23:01:51.903Z,98610.00
2023-01-05T23:04:19.759Z,98604.00
2023-01-05T23:06:50.312Z,98599.00
2023-01-05T23:09:18.709Z,98603.00
2023-01-05T23:11:46.894Z,98598.00
2023-01-05T23:14:18.433Z,98603.00
2023-01-05T23:16:46.767Z,98591.00
2023-01-05T23:19:15.082Z,98591.00
2023-01-05T23:21:42.750Z,98585.00
2023-01-05T23:24:10.694Z,98589.00
2023-01-05T23:26:38.626Z,98580.00
2023-01-05T23:29:06.329Z,98588.00
2023-01-05T23:31:35.387Z,98584.00
2023-01-05T23:34:03.010Z,98579.00
2023-01-05T23:36:30.689Z,98583.00
2023-01-05T23:38:58.311Z,98577.00
2023-01-05T23:41:25.975Z,98575.00
2023-01-05T23:43:53.659Z,98572.00
2023-01-05T23:46:22.316Z,98577.00
2023-01-05T23:48:52.565Z,98574.00
2023-01-05T23:51:21.937Z,98568.00
2023-01-05T23:53:51.777Z,98571.00
2023-01-05T23:56:21.245Z,98567.00
2023-01-05T23:58:49.408Z,98559.00
